sensor_id;sensor_type;location;lat;lon;timestamp;P1;durP1;ratioP1;P2;durP2;ratioP2
35699;SDS011;21818;51.078;12.108;2023-04-25T00:02:20;3.38;;;1.92;;
35699;SDS011;21818;51.078;12.108;2023-04-25T00:04:45;2.72;;;1.75;;
35699;SDS011;21818;51.078;12.108;2023-04-25T00:07:13;4.90;;;2.00;;
35699;SDS011;21818;51.078;12.108;2023-04-25T00:09:39;3.38;;;1.95;;
35699;SDS011;21818;51.078;12.108;2023-04-25T00:12:05;6.35;;;2.17;;
35699;SDS011;21818;51.078;12.108;2023-04-25T00:14:31;2.95;;;2.03;;
35699;SDS011;21818;51.078;12.108;2023-04-25T00:16:58;3.15;;;1.85;;
35699;SDS011;21818;51.078;12.108;2023-04-25T00:19:24;4.18;;;1.90;;
35699;SDS011;21818;51.078;12.108;2023-04-25T00:21:51;3.20;;;2.08;;
35699;SDS011;21818;51.078;12.108;2023-04-25T00:24:18;5.45;;;2.00;;
35699;SDS011;21818;51.078;12.108;2023-04-25T00:26:44;5.82;;;1.63;;
35699;SDS011;21818;51.078;12.108;2023-04-25T00:29:10;5.80;;;2.78;;
35699;SDS011;21818;51.078;12.108;2023-04-25T00:31:35;3.85;;;1.90;;
35699;SDS011;21818;51.078;12.108;2023-04-25T00:34:01;4.53;;;2.00;;
35699;SDS011;21818;51.078;12.108;2023-04-25T00:36:27;3.85;;;2.15;;
35699;SDS011;21818;51.078;12.108;2023-04-25T00:38:53;4.90;;;2.20;;
35699;SDS011;21818;51.078;12.108;2023-04-25T00:41:19;4.80;;;2.55;;
35699;SDS011;21818;51.078;12.108;2023-04-25T00:43:45;4.18;;;2.05;;
35699;SDS011;21818;51.078;12.108;2023-04-25T00:46:12;3.63;;;2.28;;
35699;SDS011;21818;51.078;12.108;2023-04-25T00:48:38;2.50;;;1.88;;
35699;SDS011;21818;51.078;12.108;2023-04-25T00:51:03;5.43;;;1.98;;
35699;SDS011;21818;51.078;12.108;2023-04-25T00:53:29;3.92;;;1.90;;
35699;SDS011;21818;51.078;12.108;2023-04-25T00:55:57;2.67;;;1.83;;
35699;SDS011;21818;51.078;12.108;2023-04-25T00:58:22;7.47;;;2.35;;
35699;SDS011;21818;51.078;12.108;2023-04-25T01:00:48;4.20;;;2.13;;
35699;SDS011;21818;51.078;12.108;2023-04-25T01:03:17;3.28;;;2.33;;
35699;SDS011;21818;51.078;12.108;2023-04-25T01:05:46;4.30;;;2.38;;
35699;SDS011;21818;51.078;12.108;2023-04-25T01:08:13;4.18;;;2.40;;
35699;SDS011;21818;51.078;12.108;2023-04-25T01:10:39;4.22;;;2.22;;
35699;SDS011;21818;51.078;12.108;2023-04-25T01:13:05;3.60;;;1.88;;
35699;SDS011;21818;51.078;12.108;2023-04-25T01:15:32;5.45;;;2.25;;
35699;SDS011;21818;51.078;12.108;2023-04-25T01:17:57;4.25;;;2.05;;
35699;SDS011;21818;51.078;12.108;2023-04-25T01:20:25;4.03;;;1.95;;
35699;SDS011;21818;51.078;12.108;2023-04-25T01:22:53;4.30;;;2.15;;
35699;SDS011;21818;51.078;12.108;2023-04-25T01:25:20;4.63;;;2.35;;
35699;SDS011;21818;51.078;12.108;2023-04-25T01:27:46;4.75;;;2.22;;
35699;SDS011;21818;51.078;12.108;2023-04-25T01:30:12;2.25;;;1.95;;
35699;SDS011;21818;51.078;12.108;2023-04-25T01:32:38;5.30;;;2.15;;
35699;SDS011;21818;51.078;12.108;2023-04-25T01:35:05;3.92;;;2.08;;
35699;SDS011;21818;51.078;12.108;2023-04-25T01:37:35;4.47;;;2.30;;
35699;SDS011;21818;51.078;12.108;2023-04-25T01:40:04;4.18;;;2.10;;
35699;SDS011;21818;51.078;12.108;2023-04-25T01:42:31;6.10;;;2.63;;
35699;SDS011;21818;51.078;12.108;2023-04-25T01:44:58;4.72;;;2.03;;
35699;SDS011;21818;51.078;12.108;2023-04-25T01:47:23;5.53;;;2.10;;
35699;SDS011;21818;51.078;12.108;2023-04-25T01:49:49;6.75;;;2.72;;
35699;SDS011;21818;51.078;12.108;2023-04-25T01:52:14;5.03;;;2.20;;
35699;SDS011;21818;51.078;12.108;2023-04-25T01:54:40;7.07;;;1.98;;
35699;SDS011;21818;51.078;12.108;2023-04-25T01:57:09;5.80;;;2.70;;
35699;SDS011;21818;51.078;12.108;2023-04-25T01:59:35;4.38;;;2.40;;
35699;SDS011;21818;51.078;12.108;2023-04-25T02:02:01;5.82;;;2.58;;
35699;SDS011;21818;51.078;12.108;2023-04-25T02:04:29;3.22;;;2.13;;
35699;SDS011;21818;51.078;12.108;2023-04-25T02:06:55;5.18;;;1.92;;
35699;SDS011;21818;51.078;12.108;2023-04-25T02:09:20;8.45;;;2.40;;
35699;SDS011;21818;51.078;12.108;2023-04-25T02:11:46;4.57;;;1.95;;
35699;SDS011;21818;51.078;12.108;2023-04-25T02:14:12;3.95;;;2.30;;
35699;SDS011;21818;51.078;12.108;2023-04-25T02:16:37;4.88;;;2.53;;
35699;SDS011;21818;51.078;12.108;2023-04-25T02:19:04;3.97;;;2.30;;
35699;SDS011;21818;51.078;12.108;2023-04-25T02:21:30;6.18;;;2.35;;
35699;SDS011;21818;51.078;12.108;2023-04-25T02:23:56;5.43;;;2.60;;
35699;SDS011;21818;51.078;12.108;2023-04-25T02:26:22;4.20;;;2.45;;
35699;SDS011;21818;51.078;12.108;2023-04-25T02:28:48;4.97;;;2.22;;
35699;SDS011;21818;51.078;12.108;2023-04-25T02:31:15;3.42;;;2.10;;
35699;SDS011;21818;51.078;12.108;2023-04-25T02:33:41;4.60;;;2.30;;
35699;SDS011;21818;51.078;12.108;2023-04-25T02:36:06;4.30;;;2.20;;
35699;SDS011;21818;51.078;12.108;2023-04-25T02:38:32;4.28;;;2.40;;
35699;SDS011;21818;51.078;12.108;2023-04-25T02:40:58;7.82;;;2.63;;
35699;SDS011;21818;51.078;12.108;2023-04-25T02:43:23;4.55;;;2.55;;
35699;SDS011;21818;51.078;12.108;2023-04-25T02:45:49;5.03;;;2.33;;
35699;SDS011;21818;51.078;12.108;2023-04-25T02:48:15;8.18;;;2.70;;
35699;SDS011;21818;51.078;12.108;2023-04-25T02:50:40;4.50;;;2.72;;
35699;SDS011;21818;51.078;12.108;2023-04-25T02:53:06;3.03;;;2.35;;
35699;SDS011;21818;51.078;12.108;2023-04-25T02:55:31;5.13;;;2.42;;
35699;SDS011;21818;51.078;12.108;2023-04-25T02:57:57;4.45;;;2.13;;
35699;SDS011;21818;51.078;12.108;2023-04-25T03:00:22;5.20;;;2.50;;
35699;SDS011;21818;51.078;12.108;2023-04-25T03:02:48;2.85;;;2.08;;
35699;SDS011;21818;51.078;12.108;2023-04-25T03:05:14;8.07;;;2.70;;
35699;SDS011;21818;51.078;12.108;2023-04-25T03:07:39;6.85;;;3.20;;
35699;SDS011;21818;51.078;12.108;2023-04-25T03:10:06;5.82;;;2.80;;
35699;SDS011;21818;51.078;12.108;2023-04-25T03:12:32;4.25;;;2.00;;
35699;SDS011;21818;51.078;12.108;2023-04-25T03:14:58;4.40;;;2.75;;
35699;SDS011;21818;51.078;12.108;2023-04-25T03:17:23;4.20;;;2.20;;
35699;SDS011;21818;51.078;12.108;2023-04-25T03:19:49;5.03;;;2.30;;
35699;SDS011;21818;51.078;12.108;2023-04-25T03:22:14;3.37;;;2.30;;
35699;SDS011;21818;51.078;12.108;2023-04-25T03:24:40;4.03;;;2.17;;
35699;SDS011;21818;51.078;12.108;2023-04-25T03:27:05;5.13;;;2.88;;
35699;SDS011;21818;51.078;12.108;2023-04-25T03:29:31;4.53;;;2.50;;
35699;SDS011;21818;51.078;12.108;2023-04-25T03:31:56;5.35;;;2.58;;
35699;SDS011;21818;51.078;12.108;2023-04-25T03:34:22;5.03;;;2.40;;
35699;SDS011;21818;51.078;12.108;2023-04-25T03:36:48;4.50;;;2.88;;
35699;SDS011;21818;51.078;12.108;2023-04-25T03:39:14;5.63;;;2.60;;
35699;SDS011;21818;51.078;12.108;2023-04-25T03:41:40;4.10;;;2.38;;
35699;SDS011;21818;51.078;12.108;2023-04-25T03:44:06;5.13;;;2.80;;
35699;SDS011;21818;51.078;12.108;2023-04-25T03:46:31;5.53;;;2.50;;
35699;SDS011;21818;51.078;12.108;2023-04-25T03:48:57;3.60;;;2.60;;
35699;SDS011;21818;51.078;12.108;2023-04-25T03:51:24;6.38;;;2.67;;
35699;SDS011;21818;51.078;12.108;2023-04-25T03:53:50;5.53;;;2.80;;
35699;SDS011;21818;51.078;12.108;2023-04-25T03:56:16;6.05;;;2.35;;
35699;SDS011;21818;51.078;12.108;2023-04-25T03:58:42;5.65;;;2.47;;
35699;SDS011;21818;51.078;12.108;2023-04-25T04:01:07;4.70;;;2.78;;
35699;SDS011;21818;51.078;12.108;2023-04-25T04:03:34;4.22;;;2.42;;
35699;SDS011;21818;51.078;12.108;2023-04-25T04:06:01;5.93;;;2.38;;
35699;SDS011;21818;51.078;12.108;2023-04-25T04:08:30;9.75;;;2.83;;
35699;SDS011;21818;51.078;12.108;2023-04-25T04:10:57;6.32;;;3.63;;
35699;SDS011;21818;51.078;12.108;2023-04-25T04:13:23;5.18;;;2.60;;
35699;SDS011;21818;51.078;12.108;2023-04-25T04:15:51;4.97;;;2.47;;
35699;SDS011;21818;51.078;12.108;2023-04-25T04:18:16;4.20;;;2.40;;
35699;SDS011;21818;51.078;12.108;2023-04-25T04:20:42;3.70;;;2.63;;
35699;SDS011;21818;51.078;12.108;2023-04-25T04:23:07;4.65;;;2.67;;
35699;SDS011;21818;51.078;12.108;2023-04-25T04:25:33;5.45;;;2.97;;
35699;SDS011;21818;51.078;12.108;2023-04-25T04:27:59;4.97;;;2.70;;
35699;SDS011;21818;51.078;12.108;2023-04-25T04:30:25;3.92;;;2.47;;
35699;SDS011;21818;51.078;12.108;2023-04-25T04:32:54;5.95;;;2.92;;
35699;SDS011;21818;51.078;12.108;2023-04-25T04:35:20;6.20;;;2.67;;
35699;SDS011;21818;51.078;12.108;2023-04-25T04:37:47;4.43;;;2.55;;
35699;SDS011;21818;51.078;12.108;2023-04-25T04:40:13;5.65;;;2.30;;
35699;SDS011;21818;51.078;12.108;2023-04-25T04:42:43;4.97;;;2.67;;
35699;SDS011;21818;51.078;12.108;2023-04-25T04:45:10;8.10;;;3.08;;
35699;SDS011;21818;51.078;12.108;2023-04-25T04:47:37;3.80;;;2.40;;
35699;SDS011;21818;51.078;12.108;2023-04-25T04:50:04;4.75;;;2.70;;
35699;SDS011;21818;51.078;12.108;2023-04-25T04:52:34;4.75;;;2.63;;
35699;SDS011;21818;51.078;12.108;2023-04-25T04:55:00;4.28;;;2.60;;
35699;SDS011;21818;51.078;12.108;2023-04-25T04:57:27;5.00;;;2.55;;
35699;SDS011;21818;51.078;12.108;2023-04-25T04:59:53;6.80;;;2.90;;
35699;SDS011;21818;51.078;12.108;2023-04-25T05:02:18;6.45;;;3.35;;
35699;SDS011;21818;51.078;12.108;2023-04-25T05:04:44;3.88;;;2.35;;
35699;SDS011;21818;51.078;12.108;2023-04-25T05:07:10;6.15;;;3.00;;
35699;SDS011;21818;51.078;12.108;2023-04-25T05:09:36;6.57;;;3.03;;
35699;SDS011;21818;51.078;12.108;2023-04-25T05:12:01;4.45;;;2.35;;
35699;SDS011;21818;51.078;12.108;2023-04-25T05:14:27;4.00;;;2.70;;
35699;SDS011;21818;51.078;12.108;2023-04-25T05:16:54;3.75;;;2.53;;
35699;SDS011;21818;51.078;12.108;2023-04-25T05:19:20;5.78;;;2.90;;
35699;SDS011;21818;51.078;12.108;2023-04-25T05:21:45;8.98;;;3.33;;
35699;SDS011;21818;51.078;12.108;2023-04-25T05:24:11;5.82;;;2.38;;
35699;SDS011;21818;51.078;12.108;2023-04-25T05:26:37;6.32;;;2.88;;
35699;SDS011;21818;51.078;12.108;2023-04-25T05:29:02;5.07;;;2.55;;
35699;SDS011;21818;51.078;12.108;2023-04-25T05:31:28;5.90;;;2.58;;
35699;SDS011;21818;51.078;12.108;2023-04-25T05:33:54;3.88;;;2.38;;
35699;SDS011;21818;51.078;12.108;2023-04-25T05:36:19;4.95;;;2.78;;
35699;SDS011;21818;51.078;12.108;2023-04-25T05:38:45;7.68;;;2.78;;
35699;SDS011;21818;51.078;12.108;2023-04-25T05:41:11;6.20;;;2.53;;
35699;SDS011;21818;51.078;12.108;2023-04-25T05:43:36;5.40;;;2.25;;
35699;SDS011;21818;51.078;12.108;2023-04-25T05:46:02;6.25;;;2.60;;
35699;SDS011;21818;51.078;12.108;2023-04-25T05:48:27;7.40;;;2.78;;
35699;SDS011;21818;51.078;12.108;2023-04-25T05:50:53;27.27;;;6.00;;
35699;SDS011;21818;51.078;12.108;2023-04-25T05:53:19;29.90;;;6.03;;
35699;SDS011;21818;51.078;12.108;2023-04-25T05:55:46;21.40;;;6.55;;
35699;SDS011;21818;51.078;12.108;2023-04-25T05:58:11;15.65;;;5.07;;
35699;SDS011;21818;51.078;12.108;2023-04-25T06:00:37;28.90;;;6.53;;
35699;SDS011;21818;51.078;12.108;2023-04-25T06:03:03;26.88;;;5.85;;
35699;SDS011;21818;51.078;12.108;2023-04-25T06:05:29;25.48;;;7.38;;
35699;SDS011;21818;51.078;12.108;2023-04-25T06:07:54;19.33;;;4.85;;
35699;SDS011;21818;51.078;12.108;2023-04-25T06:10:20;15.80;;;4.82;;
35699;SDS011;21818;51.078;12.108;2023-04-25T06:12:47;19.30;;;4.85;;
35699;SDS011;21818;51.078;12.108;2023-04-25T06:15:13;16.48;;;4.40;;
35699;SDS011;21818;51.078;12.108;2023-04-25T06:17:38;15.73;;;4.28;;
35699;SDS011;21818;51.078;12.108;2023-04-25T06:20:04;23.17;;;4.25;;
35699;SDS011;21818;51.078;12.108;2023-04-25T06:22:31;11.27;;;3.97;;
35699;SDS011;21818;51.078;12.108;2023-04-25T06:24:56;11.13;;;3.75;;
35699;SDS011;21818;51.078;12.108;2023-04-25T06:27:23;17.35;;;3.97;;
35699;SDS011;21818;51.078;12.108;2023-04-25T06:29:49;12.68;;;3.90;;
35699;SDS011;21818;51.078;12.108;2023-04-25T06:32:15;7.47;;;3.20;;
35699;SDS011;21818;51.078;12.108;2023-04-25T06:34:40;10.43;;;3.03;;
35699;SDS011;21818;51.078;12.108;2023-04-25T06:37:06;14.68;;;5.15;;
35699;SDS011;21818;51.078;12.108;2023-04-25T06:39:31;9.43;;;3.30;;
35699;SDS011;21818;51.078;12.108;2023-04-25T06:41:57;7.22;;;2.90;;
35699;SDS011;21818;51.078;12.108;2023-04-25T06:44:22;11.07;;;3.38;;
35699;SDS011;21818;51.078;12.108;2023-04-25T06:46:49;9.82;;;3.70;;
35699;SDS011;21818;51.078;12.108;2023-04-25T06:49:14;7.95;;;2.78;;
35699;SDS011;21818;51.078;12.108;2023-04-25T06:51:40;6.35;;;2.45;;
35699;SDS011;21818;51.078;12.108;2023-04-25T06:54:06;7.57;;;2.90;;
35699;SDS011;21818;51.078;12.108;2023-04-25T06:56:31;5.20;;;2.42;;
35699;SDS011;21818;51.078;12.108;2023-04-25T06:58:57;7.53;;;2.85;;
35699;SDS011;21818;51.078;12.108;2023-04-25T07:01:22;4.47;;;2.25;;
35699;SDS011;21818;51.078;12.108;2023-04-25T07:03:48;6.90;;;2.28;;
35699;SDS011;21818;51.078;12.108;2023-04-25T07:06:14;6.15;;;2.40;;
35699;SDS011;21818;51.078;12.108;2023-04-25T07:08:39;7.85;;;2.60;;
35699;SDS011;21818;51.078;12.108;2023-04-25T07:11:05;6.22;;;2.42;;
35699;SDS011;21818;51.078;12.108;2023-04-25T07:13:30;5.82;;;2.60;;
35699;SDS011;21818;51.078;12.108;2023-04-25T07:15:56;6.45;;;2.70;;
35699;SDS011;21818;51.078;12.108;2023-04-25T07:18:22;4.28;;;1.95;;
35699;SDS011;21818;51.078;12.108;2023-04-25T07:20:47;4.97;;;2.00;;
35699;SDS011;21818;51.078;12.108;2023-04-25T07:23:13;5.68;;;2.05;;
35699;SDS011;21818;51.078;12.108;2023-04-25T07:25:38;4.38;;;2.00;;
35699;SDS011;21818;51.078;12.108;2023-04-25T07:28:04;4.00;;;2.10;;
35699;SDS011;21818;51.078;12.108;2023-04-25T07:30:30;5.00;;;2.13;;
35699;SDS011;21818;51.078;12.108;2023-04-25T07:32:55;5.80;;;2.20;;
35699;SDS011;21818;51.078;12.108;2023-04-25T07:35:21;5.03;;;2.08;;
35699;SDS011;21818;51.078;12.108;2023-04-25T07:37:47;4.35;;;1.80;;
35699;SDS011;21818;51.078;12.108;2023-04-25T07:40:13;6.38;;;2.10;;
35699;SDS011;21818;51.078;12.108;2023-04-25T07:42:40;3.03;;;1.95;;
35699;SDS011;21818;51.078;12.108;2023-04-25T07:45:06;4.90;;;2.05;;
35699;SDS011;21818;51.078;12.108;2023-04-25T07:47:32;4.07;;;1.92;;
35699;SDS011;21818;51.078;12.108;2023-04-25T07:49:57;5.13;;;1.95;;
35699;SDS011;21818;51.078;12.108;2023-04-25T07:52:23;7.38;;;2.25;;
35699;SDS011;21818;51.078;12.108;2023-04-25T07:54:49;8.82;;;2.65;;
35699;SDS011;21818;51.078;12.108;2023-04-25T07:57:14;6.63;;;2.80;;
35699;SDS011;21818;51.078;12.108;2023-04-25T07:59:41;5.38;;;2.42;;
35699;SDS011;21818;51.078;12.108;2023-04-25T08:02:07;7.85;;;2.60;;
35699;SDS011;21818;51.078;12.108;2023-04-25T08:04:33;3.50;;;1.88;;
35699;SDS011;21818;51.078;12.108;2023-04-25T08:06:58;4.25;;;2.25;;
35699;SDS011;21818;51.078;12.108;2023-04-25T08:09:24;5.45;;;2.13;;
35699;SDS011;21818;51.078;12.108;2023-04-25T08:11:50;4.88;;;2.03;;
35699;SDS011;21818;51.078;12.108;2023-04-25T08:14:15;4.72;;;1.80;;
35699;SDS011;21818;51.078;12.108;2023-04-25T08:16:41;3.47;;;2.42;;
35699;SDS011;21818;51.078;12.108;2023-04-25T08:19:07;5.13;;;2.45;;
35699;SDS011;21818;51.078;12.108;2023-04-25T08:24:00;6.00;;;2.25;;
35699;SDS011;21818;51.078;12.108;2023-04-25T08:26:26;3.97;;;2.45;;
35699;SDS011;21818;51.078;12.108;2023-04-25T08:28:53;6.70;;;2.65;;
35699;SDS011;21818;51.078;12.108;2023-04-25T08:31:18;6.93;;;2.40;;
35699;SDS011;21818;51.078;12.108;2023-04-25T08:33:44;5.22;;;2.45;;
35699;SDS011;21818;51.078;12.108;2023-04-25T08:36:10;5.70;;;2.15;;
35699;SDS011;21818;51.078;12.108;2023-04-25T08:38:35;4.78;;;2.50;;
35699;SDS011;21818;51.078;12.108;2023-04-25T08:41:01;6.65;;;2.45;;
35699;SDS011;21818;51.078;12.108;2023-04-25T08:43:29;3.10;;;2.10;;
35699;SDS011;21818;51.078;12.108;2023-04-25T08:45:57;4.30;;;2.47;;
35699;SDS011;21818;51.078;12.108;2023-04-25T08:48:25;8.10;;;3.03;;
35699;SDS011;21818;51.078;12.108;2023-04-25T08:50:53;4.68;;;2.42;;
35699;SDS011;21818;51.078;12.108;2023-04-25T08:53:26;6.88;;;2.10;;
35699;SDS011;21818;51.078;12.108;2023-04-25T08:55:54;3.92;;;2.60;;
35699;SDS011;21818;51.078;12.108;2023-04-25T08:58:21;4.25;;;2.33;;
35699;SDS011;21818;51.078;12.108;2023-04-25T09:00:47;6.22;;;2.30;;
35699;SDS011;21818;51.078;12.108;2023-04-25T09:03:14;5.05;;;2.75;;
35699;SDS011;21818;51.078;12.108;2023-04-25T09:05:40;5.28;;;2.13;;
35699;SDS011;21818;51.078;12.108;2023-04-25T09:08:07;4.72;;;2.40;;
35699;SDS011;21818;51.078;12.108;2023-04-25T09:10:33;5.43;;;2.58;;
35699;SDS011;21818;51.078;12.108;2023-04-25T09:13:02;4.03;;;2.08;;
35699;SDS011;21818;51.078;12.108;2023-04-25T09:20:53;5.10;;;2.45;;
35699;SDS011;21818;51.078;12.108;2023-04-25T09:23:23;5.47;;;2.63;;
35699;SDS011;21818;51.078;12.108;2023-04-25T09:25:49;2.50;;;1.92;;
35699;SDS011;21818;51.078;12.108;2023-04-25T09:28:16;4.40;;;2.10;;
35699;SDS011;21818;51.078;12.108;2023-04-25T09:30:49;4.82;;;2.60;;
35699;SDS011;21818;51.078;12.108;2023-04-25T09:33:20;6.57;;;2.08;;
35699;SDS011;21818;51.078;12.108;2023-04-25T09:38:20;10.60;;;2.03;;
35699;SDS011;21818;51.078;12.108;2023-04-25T09:40:46;5.45;;;1.98;;
35699;SDS011;21818;51.078;12.108;2023-04-25T09:43:20;4.68;;;2.20;;
35699;SDS011;21818;51.078;12.108;2023-04-25T09:45:47;5.07;;;2.13;;
35699;SDS011;21818;51.078;12.108;2023-04-25T09:48:22;5.43;;;2.80;;
35699;SDS011;21818;51.078;12.108;2023-04-25T09:51:08;5.60;;;2.25;;
35699;SDS011;21818;51.078;12.108;2023-04-25T09:53:36;8.30;;;4.30;;
35699;SDS011;21818;51.078;12.108;2023-04-25T09:56:03;3.58;;;2.20;;
35699;SDS011;21818;51.078;12.108;2023-04-25T09:58:31;16.17;;;9.07;;
35699;SDS011;21818;51.078;12.108;2023-04-25T10:00:59;7.47;;;3.25;;
35699;SDS011;21818;51.078;12.108;2023-04-25T10:03:26;8.75;;;2.72;;
35699;SDS011;21818;51.078;12.108;2023-04-25T10:05:55;6.30;;;1.95;;
35699;SDS011;21818;51.078;12.108;2023-04-25T10:08:25;3.90;;;2.22;;
35699;SDS011;21818;51.078;12.108;2023-04-25T10:10:54;4.05;;;1.90;;
35699;SDS011;21818;51.078;12.108;2023-04-25T10:13:20;6.60;;;2.35;;
35699;SDS011;21818;51.078;12.108;2023-04-25T10:15:46;5.00;;;1.75;;
35699;SDS011;21818;51.078;12.108;2023-04-25T10:18:12;2.40;;;1.80;;
35699;SDS011;21818;51.078;12.108;2023-04-25T10:20:38;5.25;;;2.20;;
35699;SDS011;21818;51.078;12.108;2023-04-25T10:23:09;4.53;;;1.80;;
35699;SDS011;21818;51.078;12.108;2023-04-25T10:25:41;3.50;;;1.65;;
35699;SDS011;21818;51.078;12.108;2023-04-25T10:28:08;5.28;;;2.15;;
35699;SDS011;21818;51.078;12.108;2023-04-25T10:30:33;6.95;;;1.90;;
35699;SDS011;21818;51.078;12.108;2023-04-25T10:32:59;5.15;;;2.38;;
35699;SDS011;21818;51.078;12.108;2023-04-25T10:35:26;5.82;;;1.90;;
35699;SDS011;21818;51.078;12.108;2023-04-25T10:40:29;3.88;;;1.63;;
35699;SDS011;21818;51.078;12.108;2023-04-25T10:42:56;4.57;;;1.80;;
35699;SDS011;21818;51.078;12.108;2023-04-25T10:45:57;5.32;;;1.70;;
35699;SDS011;21818;51.078;12.108;2023-04-25T10:48:25;4.80;;;1.77;;
35699;SDS011;21818;51.078;12.108;2023-04-25T10:51:08;4.85;;;1.90;;
35699;SDS011;21818;51.078;12.108;2023-04-25T10:53:40;8.32;;;1.60;;
35699;SDS011;21818;51.078;12.108;2023-04-25T10:56:11;4.20;;;1.90;;
35699;SDS011;21818;51.078;12.108;2023-04-25T11:01:13;4.90;;;1.70;;
35699;SDS011;21818;51.078;12.108;2023-04-25T11:03:44;5.45;;;2.00;;
35699;SDS011;21818;51.078;12.108;2023-04-25T11:06:22;4.50;;;2.00;;
35699;SDS011;21818;51.078;12.108;2023-04-25T11:08:54;7.57;;;2.05;;
35699;SDS011;21818;51.078;12.108;2023-04-25T11:11:20;4.60;;;2.35;;
35699;SDS011;21818;51.078;12.108;2023-04-25T11:13:49;5.55;;;2.38;;
35699;SDS011;21818;51.078;12.108;2023-04-25T11:16:15;6.13;;;1.95;;
35699;SDS011;21818;51.078;12.108;2023-04-25T11:18:42;4.90;;;1.88;;
35699;SDS011;21818;51.078;12.108;2023-04-25T11:21:08;6.05;;;2.63;;
35699;SDS011;21818;51.078;12.108;2023-04-25T11:23:34;4.78;;;1.80;;
35699;SDS011;21818;51.078;12.108;2023-04-25T11:26:00;6.20;;;2.20;;
35699;SDS011;21818;51.078;12.108;2023-04-25T11:28:26;6.38;;;1.98;;
35699;SDS011;21818;51.078;12.108;2023-04-25T11:30:52;6.03;;;1.88;;
35699;SDS011;21818;51.078;12.108;2023-04-25T11:33:18;4.88;;;1.77;;
35699;SDS011;21818;51.078;12.108;2023-04-25T11:35:48;4.13;;;2.20;;
35699;SDS011;21818;51.078;12.108;2023-04-25T11:38:14;3.85;;;1.75;;
35699;SDS011;21818;51.078;12.108;2023-04-25T11:40:40;4.85;;;1.40;;
35699;SDS011;21818;51.078;12.108;2023-04-25T11:43:06;3.65;;;1.60;;
35699;SDS011;21818;51.078;12.108;2023-04-25T11:45:32;5.07;;;1.92;;
35699;SDS011;21818;51.078;12.108;2023-04-25T11:47:57;4.38;;;2.25;;
35699;SDS011;21818;51.078;12.108;2023-04-25T11:50:23;6.15;;;1.75;;
35699;SDS011;21818;51.078;12.108;2023-04-25T11:52:49;4.68;;;2.10;;
35699;SDS011;21818;51.078;12.108;2023-04-25T11:55:19;3.88;;;2.17;;
35699;SDS011;21818;51.078;12.108;2023-04-25T11:57:47;4.47;;;1.90;;
35699;SDS011;21818;51.078;12.108;2023-04-25T12:02:44;3.22;;;1.80;;
35699;SDS011;21818;51.078;12.108;2023-04-25T12:05:16;3.83;;;1.80;;
35699;SDS011;21818;51.078;12.108;2023-04-25T12:07:42;5.43;;;1.60;;
35699;SDS011;21818;51.078;12.108;2023-04-25T12:10:11;4.97;;;1.85;;
35699;SDS011;21818;51.078;12.108;2023-04-25T12:12:41;5.53;;;2.05;;
35699;SDS011;21818;51.078;12.108;2023-04-25T12:15:09;2.58;;;1.50;;
35699;SDS011;21818;51.078;12.108;2023-04-25T12:17:47;2.72;;;1.60;;
35699;SDS011;21818;51.078;12.108;2023-04-25T12:20:18;3.78;;;1.90;;
35699;SDS011;21818;51.078;12.108;2023-04-25T12:22:47;5.75;;;1.60;;
35699;SDS011;21818;51.078;12.108;2023-04-25T12:25:14;6.07;;;2.25;;
35699;SDS011;21818;51.078;12.108;2023-04-25T12:33:27;4.40;;;1.70;;
35699;SDS011;21818;51.078;12.108;2023-04-25T12:35:56;6.07;;;1.80;;
35699;SDS011;21818;51.078;12.108;2023-04-25T12:40:53;4.20;;;1.80;;
35699;SDS011;21818;51.078;12.108;2023-04-25T12:43:19;4.78;;;1.48;;
35699;SDS011;21818;51.078;12.108;2023-04-25T12:45:49;4.30;;;1.73;;
35699;SDS011;21818;51.078;12.108;2023-04-25T12:48:16;5.43;;;1.67;;
35699;SDS011;21818;51.078;12.108;2023-04-25T12:50:42;6.85;;;1.83;;
35699;SDS011;21818;51.078;12.108;2023-04-25T12:53:08;6.95;;;1.45;;
35699;SDS011;21818;51.078;12.108;2023-04-25T12:55:34;7.53;;;1.80;;
35699;SDS011;21818;51.078;12.108;2023-04-25T12:58:00;5.28;;;1.67;;
35699;SDS011;21818;51.078;12.108;2023-04-25T13:00:25;6.43;;;2.22;;
35699;SDS011;21818;51.078;12.108;2023-04-25T13:02:51;7.32;;;1.50;;
35699;SDS011;21818;51.078;12.108;2023-04-25T13:05:17;6.93;;;1.35;;
35699;SDS011;21818;51.078;12.108;2023-04-25T13:07:43;6.90;;;1.90;;
35699;SDS011;21818;51.078;12.108;2023-04-25T13:10:08;10.40;;;1.50;;
35699;SDS011;21818;51.078;12.108;2023-04-25T13:12:34;7.07;;;1.92;;
35699;SDS011;21818;51.078;12.108;2023-04-25T13:15:00;4.20;;;1.30;;
35699;SDS011;21818;51.078;12.108;2023-04-25T13:17:25;5.95;;;1.50;;
35699;SDS011;21818;51.078;12.108;2023-04-25T13:19:51;3.50;;;1.40;;
35699;SDS011;21818;51.078;12.108;2023-04-25T13:22:16;5.60;;;1.50;;
35699;SDS011;21818;51.078;12.108;2023-04-25T13:24:44;3.88;;;1.08;;
35699;SDS011;21818;51.078;12.108;2023-04-25T13:27:09;6.18;;;1.40;;
35699;SDS011;21818;51.078;12.108;2023-04-25T13:29:35;3.90;;;1.00;;
35699;SDS011;21818;51.078;12.108;2023-04-25T13:32:03;8.80;;;1.55;;
35699;SDS011;21818;51.078;12.108;2023-04-25T13:34:28;2.78;;;0.82;;
35699;SDS011;21818;51.078;12.108;2023-04-25T13:36:54;3.90;;;1.35;;
35699;SDS011;21818;51.078;12.108;2023-04-25T13:39:20;5.88;;;1.60;;
35699;SDS011;21818;51.078;12.108;2023-04-25T13:41:45;3.65;;;1.10;;
35699;SDS011;21818;51.078;12.108;2023-04-25T13:44:11;4.82;;;1.15;;
35699;SDS011;21818;51.078;12.108;2023-04-25T13:46:37;7.88;;;1.58;;
35699;SDS011;21818;51.078;12.108;2023-04-25T13:49:05;4.70;;;1.88;;
35699;SDS011;21818;51.078;12.108;2023-04-25T13:51:31;4.85;;;1.50;;
35699;SDS011;21818;51.078;12.108;2023-04-25T13:53:56;5.10;;;1.17;;
35699;SDS011;21818;51.078;12.108;2023-04-25T13:56:22;3.80;;;1.15;;
35699;SDS011;21818;51.078;12.108;2023-04-25T13:58:48;6.53;;;1.20;;
35699;SDS011;21818;51.078;12.108;2023-04-25T14:01:16;3.92;;;1.27;;
35699;SDS011;21818;51.078;12.108;2023-04-25T14:03:42;6.07;;;1.52;;
35699;SDS011;21818;51.078;12.108;2023-04-25T14:06:07;9.35;;;1.75;;
35699;SDS011;21818;51.078;12.108;2023-04-25T14:08:33;2.72;;;1.00;;
35699;SDS011;21818;51.078;12.108;2023-04-25T14:10:59;5.03;;;1.67;;
35699;SDS011;21818;51.078;12.108;2023-04-25T14:13:25;5.10;;;1.35;;
35699;SDS011;21818;51.078;12.108;2023-04-25T14:15:51;4.40;;;1.10;;
35699;SDS011;21818;51.078;12.108;2023-04-25T14:18:17;5.65;;;1.45;;
35699;SDS011;21818;51.078;12.108;2023-04-25T14:20:43;8.10;;;2.00;;
35699;SDS011;21818;51.078;12.108;2023-04-25T14:23:08;4.60;;;1.20;;
35699;SDS011;21818;51.078;12.108;2023-04-25T14:25:34;2.42;;;1.08;;
35699;SDS011;21818;51.078;12.108;2023-04-25T14:28:01;6.43;;;1.42;;
35699;SDS011;21818;51.078;12.108;2023-04-25T14:30:26;4.75;;;1.20;;
35699;SDS011;21818;51.078;12.108;2023-04-25T14:32:52;5.20;;;1.13;;
35699;SDS011;21818;51.078;12.108;2023-04-25T14:35:18;5.10;;;1.17;;
35699;SDS011;21818;51.078;12.108;2023-04-25T14:37:44;5.05;;;1.20;;
35699;SDS011;21818;51.078;12.108;2023-04-25T14:40:10;5.57;;;1.30;;
35699;SDS011;21818;51.078;12.108;2023-04-25T14:42:38;4.07;;;1.15;;
35699;SDS011;21818;51.078;12.108;2023-04-25T14:45:05;2.58;;;1.20;;
35699;SDS011;21818;51.078;12.108;2023-04-25T14:47:32;4.75;;;0.98;;
35699;SDS011;21818;51.078;12.108;2023-04-25T14:49:58;4.90;;;1.42;;
35699;SDS011;21818;51.078;12.108;2023-04-25T14:52:23;5.35;;;1.63;;
35699;SDS011;21818;51.078;12.108;2023-04-25T14:54:50;8.38;;;2.13;;
35699;SDS011;21818;51.078;12.108;2023-04-25T14:57:16;10.07;;;1.25;;